Timeline UpdatesTrip UpdatesNews PostsPvt Posts♥♥Travel TipsAdmin PostsConv PostsFollowed PostsChat RequestsBlog PostsPNR Posts

Disclaimer
Search
 
 
Fri Dec 19, 2014 00:59:05 ISTHomeTrainsΣChainsAtlasPNRForumGalleryNewsFAQTripsMembersLoginFeedback
PNR Super Search

Ticket PNR Status Inquiry - PNR: 820-xxxxxxx (E-Ticket)

OLD STATUS

Status Last Updated on: Jul 07 2012 (9:00PM) IST

Date of Journey: Sun Jul 08, 2012   Class: Sleeper - SL   (Total Seats available for this Class/Quota: Avbl >318)
Passenger 1: S12,69 (Booking Status: RAC 83,GNWL)
Passenger 2: S12,70 (Booking Status: RAC 84,GNWL)
Chart PREPARED

Navjeevan SF Express/12655

Travel Time: 26h 5m    29 halts    Distance: 1462 km    Avg Speed: 56 km/hr
Type: SuperFast
Zone: SR/Southern
Departs @ 06:40 (Avg on time)
Platform# 6
SMTWTFS
Ahmedabad Junction/ADI 
Arrives @ 08:45 +1 night (Avg 10m late)
Platform# 1
SMTWTFS
Vijayawada Junction/BZA 

29 halts. 207 intermediate Stations between Ahmedabad Junction and Vijayawada Junction

Show ALL intermediate Stations  Show Old Time-Table

#TrkCodeStation NameX/OArrivesAvgDepartsAvgHaltPFDay#KmSpeedElevZoneAddress
1/==/ADIAhmedabad Junction (12)»  -06:40+0610.06551mWRAhmedabad, Gujarat
2/==/NDNadiad Junction (4)X  07:22+1107:24+112m1145.66237mWRNadiad, Gujarat
3/==/ANNDAnand Junction (6)X  07:42+1307:44+132m1164.15244mWRAnand, Gujarat
4/==/BRCVadodara Junction (7)  08:25+1408:30+165m5199.88136mWRVadodara 390005, Gujarat
5/==/AKVAnkleshwar Junction (4)X  09:29+3709:31+362m21179.75519mWRAnkleshwar, Gujarat
6/==/STSurat (4)X  10:25+1810:35+1810m21229.63419mWRSurat 395001, Gujarat
7/==/UDNUdhna Junction (3)  10:42+2110:44+262m31233.67016mWRUdhna 394210, Gujarat
8%==/VYAVyara (2)  11:33+3711:35+372m11290.66090mWRVyara, Gujarat
9/-=%NDBNandurbar (3)XO  13:15+3613:20+385m21390.463203mWRNandurbar, Maharashtra
10/-=%DDEDondaicha (2)  13:53+4713:55+472m11424.831163mWRDondaicha, Maharashtra
11/==%ANAmalner (2)X  15:52+1415:54+152m11485.854188mWRAmalner, Maharashtra
12%==%JLJalgaon Junction (4)X  16:53 16:55+516:55 17:00+102 5m31540.458213mCRJalgaon 425001, Maharashtra
13/==/BSLBhusaval Junction (8)X  17:25+1317:35+1510m61564.559208mCRBhusaval 425201, Maharashtra
14/==/MKUMalkapur (2)  18:26+1618:28+162m11614.484252mCRMalkapur, Maharashtra
15/==/NNNandura (2)X  18:48+1918:50+192m11642.382267mCRNandura, Maharashtra
16/==/SEGShegaon (2)  19:08+2119:10+212m21666.974281mCRShegaon 444203, Maharashtra
17/==/AKAkola Junction (7)X  19:40+2319:45+225m21704.180284mCRAkola-444001, Maharashtra
18/==/MZRMurtizapur (3)X  20:13+2420:15+242m21741.350303mCRMurtajapur, Maharashtra
19/==/BDBadnera Junction (4)  21:05+1221:10+115m21783.170335mCRBadnera (Amravati) 444701, Maharashtra
20/==/DMNDhamangaon (2)X  21:49+2121:51+212m--1828.568300mCRDhamangaon, Maharashtra
21/==/WRWardha Junction (4)X  22:35+1922:38+213m--1878.069289mCRWardha 442001, Maharashtra
22/==/HGTHinganghat (3)X  23:07+2523:09+262m--1911.478228mCRHinganghat, Maharashtra
23/==/WRRWarora (2)X  23:39+2523:41+252m--1950.5107214mCRWarora, Maharashtra
24/==/CDChandrapur Maharashtra (3)  00:08 00:07+3500:10+342 3m--2996.913194mCRChandrapur 442401, Maharashtra
25/==/BPQBalharshah Junction (5)  01:15-201:25+010m121010.7110188mCRBallarpur. Ph : 07172 - 240341, Maharashtra
26/==/SKZRSirpur Kaghaznagar (3)X  02:03+2702:05+272m221080.465181mSCRAdilabad Dist., Telangana
27/==/MCIManchiryal (3)X  02:58 02:59+2203:00+232 1m221138.773159mSCRAdilabad Dist., Telangana
28/==/WLWarangal (3)  04:35+4804:40+475m221253.688271mSCRWarangal., Telangana
29/==/MABDMahbubabad (2)  05:21+5605:23+552m121313.869200mSCRWarangal Dist., Telangana
30/==/KMTKhammam (2)X  06:04+5006:06+492m121361.238118mSCRKhammam 507001, Telangana
31/==/BZAVijayawada Junction (10)•X  08:45+1009:00+1315m121461.67224mSCRVijayawada 520001, Andhra Pradesh
32/==/TELTenali Junction (5)XOO  09:26+2609:28+262m321492.89816mSCRTel: 08644-227834, Andhra Pradesh
33/==/BPPBapatla (3)O09:55 09:54+4009:56 09:55+401m221535.46010mSCRBapatla, Andhra Pradesh
34/==/CLXChirala (4)X  10:10+3810:12+382m221550.5698mSCRChirala, Andhra Pradesh
35/==/OGLOngole (3)X  10:55+3610:57+362m321599.87512mSCROngole, Andhra Pradesh
36/==/KVZKavali (4)XO  11:50+011:52+02m221665.813221mSCRKavali, Andhra Pradesh
37/==/NLRNellore (4)X  12:15+512:17+52m321716.62821mSCRNellore, Andhra Pradesh
38/==/GDRGudur Junction (3)  13:40+813:45+85m121755.15919mSCRGudur, Andhra Pradesh
39/==/MASChennai Central (12)  16:05+8-621892.4-9mSRChennai 600003, Tamil Nadu
Scroll to Top
Scroll to Bottom


Go to Mobile site